Time;durP1;ratioP1;P1;durP2;ratioP2;P2;SDS_P1;SDS_P2;PMS_P1;PMS_P2;Temp;Humidity;BMP_temperature;BMP_pressure;BME280_temperature;BME280_humidity;BME280_pressure;Samples;Min_cycle;Max_cycle;Signal;HPM_P1;HPM_P2
2022/10/18 00:00:07;;;;;;;29.93;19.77;;;11.70;99.90;12.60;98046.00;;;;5070882;28;20660;-70
2022/10/18 00:02:55;;;;;;;27.07;20.57;;;11.60;99.90;12.50;98038.00;;;;5068202;28;20227;-70
2022/10/18 00:05:47;;;;;;;30.93;20.60;;;11.60;99.90;12.70;98038.00;;;;5077587;28;20219;-70
2022/10/18 00:08:36;;;;;;;27.63;20.27;;;11.60;99.90;12.90;98040.00;;;;5087998;28;20356;-69
2022/10/18 00:11:24;;;;;;;35.40;21.13;;;11.60;99.90;12.60;98031.00;;;;5082542;28;20957;-70
2022/10/18 00:14:13;;;;;;;28.17;18.63;;;11.60;99.90;12.70;98032.00;;;;5076544;28;20216;-70
2022/10/18 00:17:02;;;;;;;26.83;19.83;;;11.50;99.90;12.60;98032.00;;;;5071018;28;20269;-70
2022/10/18 00:19:51;;;;;;;26.83;19.00;;;11.50;99.90;12.50;98021.00;;;;5068312;28;20215;-70
2022/10/18 00:22:42;;;;;;;26.53;20.00;;;11.50;99.90;12.60;98022.00;;;;5081369;28;20702;-70
2022/10/18 00:25:30;;;;;;;33.80;22.20;;;11.40;99.90;12.60;98025.00;;;;5076924;28;20211;-71
2022/10/18 00:28:19;;;;;;;35.53;20.63;;;11.40;99.90;12.50;98024.00;;;;5081037;28;20231;-70
2022/10/18 00:31:14;;;;;;;29.17;20.80;;;11.50;99.90;12.40;98023.00;;;;5068912;28;20204;-70
2022/10/18 00:34:06;;;;;;;30.37;21.40;;;11.40;99.90;12.10;98025.00;;;;5075211;28;20727;-70
2022/10/18 00:36:55;;;;;;;27.33;20.97;;;11.30;99.90;12.10;98012.00;;;;5083285;28;20219;-71
2022/10/18 00:39:45;;;;;;;33.13;22.97;;;11.20;99.90;12.20;98004.00;;;;5078909;28;20449;-71
2022/10/18 00:42:36;;;;;;;29.07;20.13;;;11.20;99.90;12.20;98006.00;;;;5076451;28;20234;-70
2022/10/18 00:45:25;;;;;;;32.67;21.77;;;11.10;99.90;12.30;98009.00;;;;5070487;28;20254;-70
2022/10/18 00:48:15;;;;;;;24.63;19.43;;;11.10;99.90;12.20;98006.00;;;;5069018;28;20882;-71
2022/10/18 00:51:04;;;;;;;35.80;21.57;;;11.10;99.90;12.20;98011.00;;;;5068907;28;20196;-71
2022/10/18 00:53:53;;;;;;;30.37;20.97;;;11.10;99.90;12.20;98004.00;;;;5069317;28;20671;-71
2022/10/18 00:56:44;;;;;;;26.73;19.57;;;11.10;99.90;12.30;98008.00;;;;5070286;28;20314;-70
2022/10/18 00:59:34;;;;;;;27.43;21.27;;;11.10;99.90;12.50;97996.00;;;;5069079;28;20196;-71
2022/10/18 01:02:23;;;;;;;27.63;19.63;;;11.10;99.90;12.60;97999.00;;;;5068932;28;20234;-70
2022/10/18 01:05:13;;;;;;;22.00;18.13;;;11.10;99.90;12.50;98000.00;;;;5069477;28;20200;-70
2022/10/18 01:08:37;;;;;;;32.37;20.93;;;11.20;99.90;12.20;97986.00;;;;5080578;28;20242;-70
2022/10/18 01:12:06;;;;;;;31.03;19.90;;;11.10;99.90;11.80;97986.00;;;;5080115;28;20199;-71
2022/10/18 01:15:03;;;;;;;29.00;19.73;;;11.00;99.90;12.10;97977.00;;;;5069708;28;20260;-71
2022/10/18 01:18:01;;;;;;;26.57;20.60;;;10.90;99.90;12.20;97977.00;;;;5068375;28;20200;-71
2022/10/18 01:21:18;;;;;;;29.73;21.87;;;10.90;99.90;12.20;97976.00;;;;5074403;28;20195;-71
2022/10/18 01:24:46;;;;;;;27.23;17.57;;;11.00;99.90;11.70;97976.00;;;;5076761;28;20215;-71
2022/10/18 01:27:53;;;;;;;27.00;17.80;;;10.80;99.90;11.70;97967.00;;;;5083969;28;20862;-70
2022/10/18 01:30:51;;;;;;;22.50;19.00;;;10.70;99.90;11.80;97965.00;;;;5068411;28;20211;-71
2022/10/18 01:33:43;;;;;;;27.97;19.60;;;10.60;99.90;11.70;97963.00;;;;5073304;28;20682;-71
2022/10/18 01:36:35;;;;;;;26.93;20.10;;;10.60;99.90;11.80;97962.00;;;;5083819;28;20249;-70
2022/10/18 01:39:29;;;;;;;32.07;20.97;;;10.60;99.90;11.80;97955.00;;;;5076221;28;20607;-70
2022/10/18 01:42:20;;;;;;;30.30;20.45;;;10.60;99.90;11.80;97951.00;;;;5085115;28;20107;-70
2022/10/18 01:45:11;;;;;;;32.97;19.70;;;10.60;99.90;11.70;97953.00;;;;5093190;28;20272;-70
2022/10/18 01:48:03;;;;;;;28.80;21.87;;;10.60;99.90;11.60;97954.00;;;;5092337;28;20192;-71
2022/10/18 01:50:53;;;;;;;27.67;20.33;;;10.60;99.90;11.60;97946.00;;;;5073216;28;20208;-70
2022/10/18 01:53:42;;;;;;;25.20;19.83;;;10.60;99.90;11.50;97948.00;;;;5072646;28;20756;-70
2022/10/18 01:56:38;;;;;;;30.90;19.40;;;10.50;99.90;11.30;97941.00;;;;5081797;28;20678;-70
2022/10/18 01:59:41;;;;;;;28.07;19.27;;;10.40;99.90;11.50;97937.00;;;;5087813;28;20374;-71
2022/10/18 02:02:43;;;;;;;26.17;20.17;;;10.40;99.90;11.30;97938.00;;;;5085262;23;20846;-84
2022/10/18 02:05:40;;;;;;;33.90;19.63;;;10.40;99.90;11.60;97939.00;;;;5068968;28;20197;-84
2022/10/18 02:08:34;;;;;;;33.63;21.40;;;10.40;99.90;11.70;97939.00;;;;5060088;28;20203;-84
2022/10/18 02:11:23;;;;;;;31.17;21.53;;;10.50;99.90;11.80;97935.00;;;;5056491;28;20220;-84
2022/10/18 02:14:14;;;;;;;31.87;20.87;;;10.50;99.90;11.60;97932.00;;;;5051669;28;20479;-84
2022/10/18 02:17:08;;;;;;;22.33;17.90;;;10.50;99.90;11.60;97936.00;;;;5045150;28;20201;-84
2022/10/18 02:19:58;;;;;;;25.37;19.17;;;10.50;99.90;11.30;97929.00;;;;5036271;28;20279;-83
2022/10/18 02:22:51;;;;;;;24.80;18.07;;;10.40;99.90;10.80;97926.00;;;;5050453;28;20224;-84
2022/10/18 02:25:39;;;;;;;24.47;18.50;;;10.30;99.90;10.90;97925.00;;;;5051226;28;20258;-85
2022/10/18 02:28:28;;;;;;;27.70;19.83;;;10.10;99.90;10.90;97928.00;;;;5051352;28;20192;-85
2022/10/18 02:31:25;;;;;;;29.30;19.17;;;10.10;99.90;10.90;97928.00;;;;5049723;28;20228;-83
2022/10/18 02:34:21;;;;;;;27.60;18.97;;;10.10;99.90;10.70;97919.00;;;;5041616;28;20197;-84
2022/10/18 02:37:12;;;;;;;25.57;18.43;;;10.00;99.90;11.00;97925.00;;;;5051109;28;20200;-84
2022/10/18 02:40:03;;;;;;;32.00;18.93;;;9.90;99.90;10.80;97927.00;;;;5051422;28;20291;-84
2022/10/18 02:42:56;;;;;;;25.87;19.03;;;9.90;99.90;10.70;97922.00;;;;5050770;28;20224;-85
2022/10/18 02:45:45;;;;;;;28.83;19.50;;;9.90;99.90;10.60;97924.00;;;;5041433;28;20201;-84
2022/10/18 02:48:34;;;;;;;33.53;21.10;;;9.80;99.90;10.70;97926.00;;;;5042886;28;20291;-81
2022/10/18 02:51:24;;;;;;;28.73;20.83;;;9.90;99.90;10.90;97928.00;;;;5041061;28;20256;-85
2022/10/18 02:54:12;;;;;;;31.00;21.90;;;9.90;99.90;11.10;97928.00;;;;5038871;28;20694;-83
2022/10/18 02:57:02;;;;;;;32.10;22.20;;;10.00;99.90;11.30;97932.00;;;;5052399;28;20626;-85
2022/10/18 02:59:51;;;;;;;34.00;23.80;;;10.10;99.90;11.50;97933.00;;;;5049655;28;20289;-84
2022/10/18 03:02:40;;;;;;;32.50;21.40;;;10.20;99.90;11.20;97921.00;;;;5050640;28;20209;-83
2022/10/18 03:05:28;;;;;;;30.07;22.10;;;10.20;99.90;11.30;97916.00;;;;5049861;28;20201;-83
2022/10/18 03:08:18;;;;;;;29.33;20.63;;;10.20;99.90;11.40;97923.00;;;;5045869;28;20201;-84
2022/10/18 03:11:06;;;;;;;28.90;20.27;;;10.20;99.90;10.90;97917.00;;;;5042315;28;20738;-84
2022/10/18 03:13:57;;;;;;;26.63;19.90;;;10.10;99.90;10.80;97913.00;;;;5039036;28;20205;-84
2022/10/18 03:16:45;;;;;;;27.00;18.60;;;10.40;99.90;11.20;97912.00;;;;5049278;28;20258;-85
2022/10/18 03:19:34;;;;;;;29.57;19.80;;;10.00;99.90;11.50;97913.00;;;;5051431;28;20727;-84
2022/10/18 03:22:24;;;;;;;35.27;21.80;;;10.00;99.90;11.70;97912.00;;;;5041180;28;20232;-85
2022/10/18 03:25:12;;;;;;;28.90;19.97;;;10.20;99.90;11.10;97913.00;;;;5043752;28;20231;-84
2022/10/18 03:28:01;;;;;;;29.20;19.37;;;10.20;99.90;10.60;97898.00;;;;5048061;28;20230;-84
2022/10/18 03:30:51;;;;;;;30.93;20.40;;;10.10;99.90;10.60;97905.00;;;;5067844;23;20232;-67
2022/10/18 03:33:40;;;;;;;26.50;18.93;;;9.90;99.90;10.60;97905.00;;;;5068202;28;20215;-67
2022/10/18 03:36:28;;;;;;;25.63;17.67;;;9.80;99.90;10.50;97904.00;;;;5057788;28;20212;-68
2022/10/18 03:39:17;;;;;;;25.80;19.23;;;9.70;99.90;10.40;97909.00;;;;5065891;28;20200;-69
2022/10/18 03:42:06;;;;;;;29.43;19.13;;;9.70;99.90;10.20;97908.00;;;;5059747;28;20269;-66
2022/10/18 03:44:55;;;;;;;29.33;18.73;;;9.50;99.90;10.30;97912.00;;;;5068256;28;20272;-70
2022/10/18 03:47:45;;;;;;;25.83;17.30;;;9.50;99.90;10.50;97912.00;;;;5069590;28;20210;-68
2022/10/18 03:50:33;;;;;;;37.73;20.90;;;9.60;99.90;10.90;97911.00;;;;5069360;28;20200;-66
2022/10/18 03:53:22;;;;;;;36.03;21.27;;;9.70;99.90;11.00;97900.00;;;;5069504;28;20345;-66
2022/10/18 03:56:11;;;;;;;35.47;22.30;;;9.80;99.90;10.90;97905.00;;;;5058265;28;20586;-66
2022/10/18 03:58:59;;;;;;;30.87;20.97;;;9.80;99.90;10.50;97898.00;;;;5056529;28;20257;-66
2022/10/18 04:01:48;;;;;;;28.83;21.57;;;9.80;99.90;10.70;97895.00;;;;5059036;28;20212;-67
2022/10/18 04:04:38;;;;;;;28.53;21.03;;;9.80;99.90;10.40;97895.00;;;;5068623;28;20208;-66
2022/10/18 04:07:27;;;;;;;28.47;18.90;;;9.70;99.90;10.50;97889.00;;;;5070420;28;20208;-67
2022/10/18 04:10:17;;;;;;;35.70;20.97;;;9.70;99.90;10.30;97890.00;;;;5063787;28;20257;-67
2022/10/18 04:13:06;;;;;;;28.67;21.60;;;9.60;99.90;10.40;97895.00;;;;5061985;28;20224;-67
2022/10/18 04:15:55;;;;;;;31.43;20.53;;;9.60;99.90;10.50;97897.00;;;;5057885;28;20476;-66
2022/10/18 04:18:44;;;;;;;35.30;22.00;;;9.60;99.90;10.80;97895.00;;;;5055545;28;20688;-67
2022/10/18 04:21:34;;;;;;;30.80;21.00;;;9.60;99.90;11.00;97903.00;;;;5067426;28;20706;-67
2022/10/18 04:24:23;;;;;;;32.10;21.27;;;9.70;99.90;11.10;97893.00;;;;5068723;28;20257;-68
2022/10/18 04:27:11;;;;;;;34.57;21.77;;;9.80;99.90;11.30;97896.00;;;;5063016;28;20679;-67
2022/10/18 04:30:00;;;;;;;31.33;22.03;;;9.90;99.90;11.50;97891.00;;;;5068786;28;20285;-67
2022/10/18 04:32:48;;;;;;;31.73;20.67;;;10.00;99.90;11.40;97893.00;;;;5059103;28;20248;-67
2022/10/18 04:35:37;;;;;;;38.33;21.70;;;10.10;99.90;10.80;97889.00;;;;5059199;28;20574;-67
2022/10/18 04:38:27;;;;;;;31.40;21.27;;;10.00;99.90;10.40;97891.00;;;;5066922;28;20211;-67
2022/10/18 04:41:16;;;;;;;34.47;19.80;;;9.80;99.90;10.30;97885.00;;;;5064029;28;20204;-70
2022/10/18 04:44:05;;;;;;;33.67;20.33;;;9.70;99.90;10.40;97882.00;;;;5060188;28;20622;-67
2022/10/18 04:46:54;;;;;;;27.80;18.37;;;9.60;99.90;10.60;97877.00;;;;5055525;28;20286;-67
2022/10/18 04:49:43;;;;;;;32.43;21.50;;;9.60;99.90;10.50;97879.00;;;;5061652;28;20200;-67
2022/10/18 04:52:32;;;;;;;37.70;21.30;;;9.60;99.90;10.80;97885.00;;;;5062913;28;20220;-66
2022/10/18 04:55:22;;;;;;;28.53;19.70;;;9.70;99.90;10.80;97891.00;;;;5058370;28;20229;-67
2022/10/18 04:58:10;;;;;;;29.30;20.17;;;9.80;99.90;10.20;97885.00;;;;5054386;28;20270;-67
2022/10/18 05:00:59;;;;;;;27.73;18.63;;;9.60;99.90;10.30;97878.00;;;;5057546;28;20236;-70
2022/10/18 05:03:52;;;;;;;33.20;20.67;;;9.50;99.90;10.50;97872.00;;;;5056329;28;20231;-69
2022/10/18 05:06:41;;;;;;;31.13;20.53;;;9.50;99.90;10.60;97883.00;;;;5059852;28;20192;-67
2022/10/18 05:09:30;;;;;;;33.30;21.60;;;10.30;99.90;10.30;97885.00;;;;5057987;28;20897;-68
2022/10/18 05:12:21;;;;;;;42.83;27.20;;;9.50;99.90;10.30;97893.00;;;;5063301;28;20357;-67
2022/10/18 05:15:10;;;;;;;35.47;22.47;;;9.50;99.90;10.10;97886.00;;;;5068421;28;20235;-70
2022/10/18 05:17:59;;;;;;;29.07;18.83;;;9.40;99.90;10.10;97881.00;;;;5072118;28;20246;-66
2022/10/18 05:20:48;;;;;;;29.17;20.30;;;9.40;99.90;10.30;97886.00;;;;5072365;28;20734;-65
2022/10/18 05:23:36;;;;;;;34.20;21.47;;;9.40;99.90;10.30;97881.00;;;;5066331;28;20216;-67
2022/10/18 05:26:25;;;;;;;34.33;21.23;;;9.40;99.90;10.10;97877.00;;;;5062825;28;20203;-67
2022/10/18 05:29:15;;;;;;;34.33;20.80;;;9.40;99.90;10.10;97872.00;;;;5069760;28;20261;-66
2022/10/18 05:32:04;;;;;;;30.97;19.97;;;9.40;99.90;10.10;97871.00;;;;5064912;28;20243;-66
2022/10/18 05:34:53;;;;;;;33.00;21.67;;;9.40;99.90;10.20;97872.00;;;;5063507;28;21005;-67
2022/10/18 05:37:41;;;;;;;33.37;21.00;;;8.10;99.90;10.20;97877.00;;;;5060203;28;20255;-67
2022/10/18 05:40:30;;;;;;;33.03;20.33;;;9.30;99.90;10.10;97868.00;;;;5063686;28;20622;-67
2022/10/18 05:43:19;;;;;;;29.67;21.90;;;9.30;99.90;10.30;97872.00;;;;5061604;28;20313;-66
2022/10/18 05:46:09;;;;;;;31.90;21.23;;;9.30;99.90;10.40;97867.00;;;;5063283;28;20250;-65
2022/10/18 05:49:01;;;;;;;35.20;21.70;;;9.40;99.90;10.80;97864.00;;;;5063875;28;20199;-67
2022/10/18 05:51:50;;;;;;;29.77;20.63;;;9.60;99.90;10.80;97871.00;;;;5066387;28;20643;-66
2022/10/18 05:54:38;;;;;;;32.57;21.30;;;9.60;99.90;11.00;97864.00;;;;5067079;28;20256;-66
2022/10/18 05:57:27;;;;;;;31.13;20.70;;;9.80;99.90;11.00;97862.00;;;;5063199;28;20254;-66
2022/10/18 06:00:16;;;;;;;30.70;19.87;;;10.00;99.90;10.80;97859.00;;;;5066610;28;20211;-67
2022/10/18 06:03:06;;;;;;;28.20;18.30;;;10.00;99.90;10.70;97853.00;;;;5062522;28;20227;-70
2022/10/18 06:06:00;;;;;;;28.77;20.50;;;9.90;99.90;10.70;97858.00;;;;5061187;28;20261;-67
2022/10/18 06:08:50;;;;;;;29.77;20.13;;;9.80;99.90;11.10;97849.00;;;;5071869;28;20215;-67
2022/10/18 06:11:38;;;;;;;37.10;21.17;;;9.90;99.90;10.90;97855.00;;;;5059966;28;20200;-67
2022/10/18 06:14:27;;;;;;;29.10;19.03;;;9.90;99.90;10.90;97856.00;;;;5059110;28;20230;-69
2022/10/18 06:17:16;;;;;;;32.63;19.13;;;10.00;99.90;10.70;97858.00;;;;5071888;28;20781;-66
2022/10/18 06:20:07;;;;;;;26.13;18.83;;;9.90;99.90;11.00;97856.00;;;;5070460;28;20287;-67
2022/10/18 06:22:56;;;;;;;31.07;18.20;;;10.00;99.90;11.10;97856.00;;;;5065178;28;20228;-67
2022/10/18 06:25:45;;;;;;;30.47;20.17;;;10.00;99.90;11.00;97858.00;;;;5063668;28;20209;-67
2022/10/18 06:28:35;;;;;;;27.07;18.17;;;10.00;99.90;11.20;97863.00;;;;5060711;28;20203;-66
2022/10/18 06:31:23;;;;;;;29.63;19.67;;;10.10;99.90;11.20;97863.00;;;;5072006;28;20698;-69
2022/10/18 06:34:12;;;;;;;30.27;18.93;;;10.10;99.90;11.20;97862.00;;;;5069811;28;20663;-67
2022/10/18 06:37:02;;;;;;;29.77;17.80;;;10.20;99.90;11.40;97862.00;;;;5057691;28;20679;-67
2022/10/18 06:39:51;;;;;;;30.27;19.87;;;10.30;99.90;11.20;97858.00;;;;5065794;28;20684;-68
2022/10/18 06:42:40;;;;;;;30.50;19.03;;;10.30;99.90;11.50;97863.00;;;;5066580;28;20265;-67
2022/10/18 06:45:28;;;;;;;25.63;17.27;;;10.40;99.90;11.90;97866.00;;;;5061315;28;20285;-67
2022/10/18 06:48:18;;;;;;;28.70;17.43;;;10.50;99.90;11.80;97868.00;;;;5060082;28;20196;-66
2022/10/18 06:51:12;;;;;;;25.23;17.47;;;10.60;99.90;11.70;97872.00;;;;5069844;28;20306;-68
2022/10/18 06:54:03;;;;;;;28.57;17.40;;;10.70;99.90;11.70;97878.00;;;;5069704;28;20228;-68
2022/10/18 06:57:04;;;;;;;23.33;17.37;;;10.60;99.90;12.00;97883.00;;;;5068652;28;20229;-69
2022/10/18 06:59:52;;;;;;;27.07;19.23;;;10.70;99.90;12.10;97872.00;;;;5060795;28;20688;-68
2022/10/18 07:02:41;;;;;;;24.63;16.37;;;10.70;99.90;12.40;97873.00;;;;5067154;28;20219;-68
2022/10/18 07:05:31;;;;;;;26.57;19.23;;;10.90;99.90;12.30;97872.00;;;;5066389;28;20211;-68
2022/10/18 07:08:20;;;;;;;26.17;15.60;;;11.00;99.90;12.10;97876.00;;;;5069785;28;20204;-68
2022/10/18 07:11:15;;;;;;;25.77;16.53;;;11.00;99.90;12.40;97867.00;;;;5067587;28;20204;-68
2022/10/18 07:14:04;;;;;;;26.50;17.40;;;11.10;99.90;12.50;97868.00;;;;5071043;28;20204;-68
2022/10/18 07:16:53;;;;;;;24.90;16.90;;;11.20;99.90;12.40;97862.00;;;;5056553;28;20228;-68
2022/10/18 07:19:42;;;;;;;24.90;15.47;;;11.30;99.90;12.60;97856.00;;;;5068841;28;20207;-68
2022/10/18 07:22:30;;;;;;;29.37;16.27;;;11.40;99.90;12.80;97860.00;;;;5060875;28;20224;-68
2022/10/18 07:25:19;;;;;;;24.25;15.75;;;11.40;99.90;13.00;97855.00;;;;5069397;28;20289;-68
2022/10/18 07:28:09;;;;;;;23.87;16.40;;;11.60;99.90;12.90;97858.00;;;;5069307;28;20373;-67
2022/10/18 07:31:04;;;;;;;19.60;14.47;;;11.70;99.90;12.80;97857.00;;;;5068839;28;20678;-66
2022/10/18 07:33:53;;;;;;;20.05;15.10;;;11.70;99.90;13.00;97848.00;;;;5059487;28;20576;-67
2022/10/18 07:36:42;;;;;;;28.37;17.87;;;11.80;99.90;13.40;97845.00;;;;5060884;28;20255;-67
2022/10/18 07:39:31;;;;;;;24.50;15.97;;;11.90;99.90;13.80;97844.00;;;;5065869;28;20216;-67
2022/10/18 07:42:19;;;;;;;25.27;16.50;;;12.10;99.90;13.80;97846.00;;;;5058738;28;20289;-67
2022/10/18 07:45:12;;;;;;;23.73;14.07;;;12.20;99.90;13.70;97840.00;;;;5061392;28;20294;-67
2022/10/18 07:48:01;;;;;;;23.53;14.77;;;12.40;99.90;14.10;97843.00;;;;5064695;28;20216;-67
2022/10/18 07:50:49;;;;;;;17.03;13.00;;;12.50;99.90;14.30;97834.00;;;;5058629;28;20768;-66
2022/10/18 07:53:38;;;;;;;22.40;14.80;;;12.70;99.90;14.40;97838.00;;;;5070277;28;20699;-67
2022/10/18 07:56:27;;;;;;;25.53;13.10;;;12.80;99.90;14.50;97838.00;;;;5061116;28;20226;-69
2022/10/18 07:59:16;;;;;;;20.43;14.53;;;13.00;99.90;14.40;97828.00;;;;5054782;28;20273;-66
2022/10/18 08:02:06;;;;;;;18.87;11.40;;;13.10;99.90;14.50;97842.00;;;;5090706;22;20280;-69
2022/10/18 08:04:55;;;;;;;20.90;13.17;;;13.20;99.90;14.50;97843.00;;;;5043122;28;20240;-69
2022/10/18 08:07:43;;;;;;;17.63;12.00;;;13.30;99.90;14.90;97847.00;;;;5045270;28;20262;-70
2022/10/18 08:10:34;;;;;;;22.17;12.40;;;13.40;99.90;15.30;97837.00;;;;5044370;28;20284;-70
2022/10/18 08:13:23;;;;;;;16.83;12.27;;;13.60;99.90;15.50;97839.00;;;;5026847;28;20279;-69
2022/10/18 08:16:14;;;;;;;18.53;12.60;;;13.80;99.90;15.50;97834.00;;;;5022757;28;20626;-70
2022/10/18 08:19:04;;;;;;;14.40;10.93;;;14.00;99.90;15.60;97840.00;;;;5025583;28;20259;-70
2022/10/18 08:21:53;;;;;;;17.23;12.63;;;14.20;99.90;15.80;97832.00;;;;5029046;28;20213;-70
2022/10/18 08:24:41;;;;;;;16.23;10.97;;;14.30;99.90;16.30;97835.00;;;;5029217;28;20259;-70
2022/10/18 08:27:30;;;;;;;14.93;9.67;;;14.40;99.90;16.50;97841.00;;;;5017899;28;20767;-70
2022/10/18 08:30:19;;;;;;;14.17;10.30;;;14.60;99.90;16.80;97837.00;;;;5021711;28;20393;-69
2022/10/18 08:33:08;;;;;;;15.13;10.20;;;14.90;99.90;16.80;97837.00;;;;5022717;28;20276;-69
2022/10/18 08:35:59;;;;;;;16.70;10.80;;;15.10;99.90;17.10;97838.00;;;;5024292;28;20336;-69
2022/10/18 08:38:49;;;;;;;14.00;10.63;;;15.30;99.90;17.30;97844.00;;;;5017082;28;20202;-72
2022/10/18 08:42:33;;;;;;;13.97;9.70;;;15.50;99.90;18.00;97846.00;;;;5025707;28;20197;-71
2022/10/18 08:45:22;;;;;;;11.27;8.40;;;15.80;99.90;18.40;97835.00;;;;4943831;29;20200;-70
2022/10/18 08:48:27;;;;;;;13.90;9.33;;;16.20;99.90;18.70;97840.00;;;;4947942;29;20211;-70
2022/10/18 08:51:27;;;;;;;12.20;9.03;;;16.50;99.90;18.60;97839.00;;;;5022469;28;20205;-70
2022/10/18 08:54:23;;;;;;;13.47;9.77;;;16.80;99.90;19.00;97831.00;;;;5028830;28;20299;-70
2022/10/18 08:57:16;;;;;;;13.10;9.00;;;17.00;99.90;19.40;97833.00;;;;5017828;28;20633;-70
2022/10/18 09:00:15;;;;;;;12.27;8.83;;;17.30;99.90;19.70;97822.00;;;;5030615;28;20201;-71
2022/10/18 09:03:21;;;;;;;12.27;8.33;;;17.50;99.90;19.50;97821.00;;;;5018979;28;20318;-68
2022/10/18 09:06:22;;;;;;;14.40;9.33;;;17.70;99.90;19.90;97823.00;;;;5032989;28;20220;-70
2022/10/18 09:09:28;;;;;;;13.40;10.30;;;17.80;99.90;20.10;97818.00;;;;5032707;28;20205;-71
2022/10/18 09:12:45;;;;;;;9.97;8.87;;;18.00;99.90;20.30;97805.00;;;;5033119;28;20220;-69
2022/10/18 09:15:43;;;;;;;22.10;11.83;;;18.20;99.90;20.40;97803.00;;;;5030304;28;20726;-71
2022/10/18 09:18:56;;;;;;;11.10;8.70;;;18.40;99.90;20.50;97805.00;;;;5025460;28;20307;-73
2022/10/18 09:21:53;;;;;;;11.33;8.50;;;18.50;99.90;20.60;97794.00;;;;5028504;28;20224;-72
2022/10/18 09:24:46;;;;;;;10.83;9.10;;;18.60;99.90;20.70;97793.00;;;;5024049;28;20198;-70
2022/10/18 09:27:45;;;;;;;14.40;9.40;;;18.80;99.90;20.90;97792.00;;;;5020849;28;20287;-73
2022/10/18 09:30:45;;;;;;;15.70;9.27;;;18.90;99.90;21.10;97790.00;;;;5032774;28;20197;-73
2022/10/18 09:33:46;;;;;;;11.77;9.03;;;19.00;99.90;21.00;97796.00;;;;5024677;28;20221;-68
2022/10/18 09:36:37;;;;;;;13.90;9.10;;;19.10;99.90;21.50;97795.00;;;;5021395;28;20221;-70
2022/10/18 09:39:33;;;;;;;10.50;8.73;;;19.30;99.90;21.50;97786.00;;;;5030801;28;20201;-73
2022/10/18 09:42:29;;;;;;;12.67;8.83;;;19.50;99.90;21.60;97785.00;;;;5032600;28;20233;-74
2022/10/18 09:45:29;;;;;;;10.97;7.97;;;19.60;99.90;21.80;97787.00;;;;5032564;28;20201;-70
2022/10/18 09:48:23;;;;;;;10.67;8.57;;;19.70;99.90;21.70;97787.00;;;;5016518;28;20201;-72
2022/10/18 09:51:20;;;;;;;10.67;8.37;;;19.80;99.90;22.20;97781.00;;;;5027859;28;20206;-71
2022/10/18 09:54:24;;;;;;;9.50;8.50;;;20.00;99.90;22.40;97774.00;;;;5016919;28;20298;-71
2022/10/18 09:57:19;;;;;;;12.43;8.03;;;20.20;99.90;22.40;97785.00;;;;5023077;28;20269;-69
2022/10/18 10:00:16;;;;;;;10.53;8.70;;;20.30;99.90;22.50;97774.00;;;;5031026;28;20251;-69
2022/10/18 10:03:11;;;;;;;11.33;8.53;;;20.50;99.90;22.60;97772.00;;;;5029329;28;20609;-69
2022/10/18 10:06:16;;;;;;;9.50;8.20;;;20.60;99.90;23.00;97771.00;;;;5031023;28;20211;-69
2022/10/18 10:09:14;;;;;;;9.90;8.00;;;20.80;99.90;23.00;97771.00;;;;5023142;28;20204;-73
2022/10/18 10:12:03;;;;;;;10.30;8.07;;;20.90;99.90;23.20;97757.00;;;;5023697;28;20252;-74
2022/10/18 10:14:53;;;;;;;13.20;9.97;;;21.10;99.90;23.50;97753.00;;;;5029349;28;20212;-70
2022/10/18 10:17:43;;;;;;;10.97;8.90;;;21.30;99.90;23.80;97767.00;;;;5023604;28;20691;-70
2022/10/18 10:20:41;;;;;;;12.80;8.97;;;21.40;99.90;24.00;97761.00;;;;5023025;28;20620;-70
2022/10/18 10:23:33;;;;;;;11.27;9.10;;;21.60;99.90;23.80;97754.00;;;;5020096;28;20307;-72
2022/10/18 10:26:25;;;;;;;10.87;8.53;;;21.80;99.90;24.20;97744.00;;;;5021091;28;20202;-72
2022/10/18 10:29:55;;;;;;;13.47;8.40;;;22.00;99.90;24.60;97743.00;;;;5025066;28;20264;-71
2022/10/18 10:32:48;;;;;;;8.10;7.30;;;22.30;99.90;25.00;97734.00;;;;5024775;28;20247;-71
2022/10/18 10:35:39;;;;;;;11.80;7.97;;;22.80;99.90;25.30;97736.00;;;;5021898;28;20279;-71
2022/10/18 10:38:43;;;;;;;8.97;7.67;;;23.10;99.90;24.70;97734.00;;;;5015704;28;20280;-72
2022/10/18 10:41:33;;;;;;;11.97;9.07;;;23.30;99.90;25.10;97733.00;;;;5022220;28;20255;-72
2022/10/18 10:44:26;;;;;;;11.33;8.73;;;23.40;99.90;25.60;97730.00;;;;5021642;28;20579;-72
2022/10/18 10:47:31;;;;;;;11.27;8.47;;;23.60;99.90;26.50;97734.00;;;;5019078;28;20312;-72
2022/10/18 10:50:25;;;;;;;12.47;7.23;;;24.10;99.90;26.40;97725.00;;;;5020613;28;20581;-73
2022/10/18 10:53:34;;;;;;;12.20;8.07;;;24.40;99.90;26.70;97712.00;;;;5023852;28;20225;-72
2022/10/18 10:56:26;;;;;;;9.47;8.20;;;24.80;99.90;27.00;97715.00;;;;5023081;28;20205;-72
2022/10/18 10:59:20;;;;;;;10.30;7.60;;;25.00;99.70;27.20;97703.00;;;;5023193;28;20222;-72
2022/10/18 11:02:21;;;;;;;8.87;7.37;;;25.20;98.80;26.50;97713.00;;;;5021473;28;20207;-72
2022/10/18 11:05:25;;;;;;;9.20;8.10;;;25.30;96.60;26.40;97703.00;;;;5022898;28;20275;-71
2022/10/18 11:08:19;;;;;;;9.40;7.00;;;25.40;95.00;27.20;97693.00;;;;5022829;28;20293;-71
2022/10/18 11:11:19;;;;;;;11.70;8.43;;;25.40;95.40;27.50;97698.00;;;;5022848;28;20201;-71
2022/10/18 11:14:20;;;;;;;11.47;8.00;;;25.50;94.70;26.90;97697.00;;;;5018413;28;20221;-71
2022/10/18 11:17:23;;;;;;;9.37;7.40;;;25.70;94.50;26.20;97677.00;;;;5021703;28;20667;-71
2022/10/18 11:20:22;;;;;;;12.10;8.20;;;25.70;92.50;27.00;97685.00;;;;5026372;28;20202;-72
2022/10/18 11:23:13;;;;;;;11.50;7.77;;;25.50;92.60;26.50;97674.00;;;;5024744;28;20702;-71
2022/10/18 11:26:25;;;;;;;9.00;8.07;;;25.50;91.90;26.30;97672.00;;;;5019602;28;20240;-72
2022/10/18 11:29:48;;;;;;;11.27;7.90;;;25.30;91.60;26.30;97667.00;;;;5020290;28;20209;-71
2022/10/18 11:32:42;;;;;;;9.77;6.87;;;25.20;91.10;27.40;97671.00;;;;5020821;28;20225;-71
2022/10/18 11:35:44;;;;;;;11.43;7.50;;;25.30;92.70;27.30;97660.00;;;;5020641;28;20259;-72
2022/10/18 11:38:43;;;;;;;8.63;7.40;;;25.70;91.50;27.10;97667.00;;;;5021445;28;20282;-72
2022/10/18 11:41:38;;;;;;;9.20;7.53;;;25.90;90.50;28.60;97659.00;;;;5022917;28;20208;-72
2022/10/18 11:44:36;;;;;;;9.23;7.40;;;26.20;89.40;28.90;97655.00;;;;5020272;28;20232;-71
2022/10/18 11:47:37;;;;;;;10.93;7.33;;;26.60;88.70;29.20;97658.00;;;;5028018;28;20275;-73
2022/10/18 11:50:37;;;;;;;7.50;6.80;;;27.00;87.60;29.30;97653.00;;;;5021014;28;20196;-72
2022/10/18 11:53:36;;;;;;;10.20;6.88;;;27.30;86.60;29.50;97650.00;;;;5024602;28;20567;-73
2022/10/18 11:56:34;;;;;;;8.70;7.80;;;27.60;85.80;29.90;97641.00;;;;5022356;28;20206;-71
2022/10/18 11:59:32;;;;;;;11.05;8.40;;;27.60;84.80;30.60;97642.00;;;;5022168;28;20250;-73
2022/10/18 12:02:56;;;;;;;12.77;8.75;;;27.90;84.30;30.10;97631.00;;;;5017980;28;20240;-72
2022/10/18 12:05:49;;;;;;;8.25;6.82;;;28.10;82.20;30.20;97638.00;;;;5022005;28;20211;-72
2022/10/18 12:08:42;;;;;;;10.25;8.73;;;28.10;82.80;31.30;97637.00;;;;5021476;28;20284;-71
2022/10/18 12:11:36;;;;;;;10.23;8.98;;;28.50;83.90;30.70;97630.00;;;;5023042;28;20235;-71
2022/10/18 12:14:29;;;;;;;10.45;8.57;;;28.70;82.20;31.50;97633.00;;;;5019877;28;20214;-71
2022/10/18 12:17:28;;;;;;;11.88;9.00;;;29.10;81.50;31.00;97630.00;;;;5020048;28;20197;-72
2022/10/18 12:20:33;;;;;;;13.27;9.57;;;29.20;81.60;31.90;97632.00;;;;5026365;28;20197;-72
2022/10/18 12:23:38;;;;;;;10.85;9.75;;;29.40;80.00;31.90;97624.00;;;;5018776;28;20217;-72
2022/10/18 12:26:28;;;;;;;10.63;9.63;;;29.60;79.00;32.10;97612.00;;;;5009243;28;20547;-71
2022/10/18 12:29:25;;;;;;;15.95;11.30;;;29.70;79.60;31.30;97613.00;;;;5025704;28;20217;-72
2022/10/18 12:32:19;;;;;;;11.52;10.32;;;29.70;77.00;32.20;97609.00;;;;5024449;28;20750;-71
2022/10/18 12:35:14;;;;;;;27.85;11.15;;;29.70;77.00;32.30;97610.00;;;;5020243;28;20299;-71
2022/10/18 12:38:19;;;;;;;11.65;10.13;;;29.90;77.20;32.10;97597.00;;;;5024251;28;20343;-72